createdAt,value
2016-01-14T00:00:03.843Z,712.14
2016-01-14T00:00:19.437Z,712.09
2016-01-14T00:00:35.828Z,712.07
2016-01-14T00:00:51.812Z,712.09
2016-01-14T00:01:07.627Z,712.12
2016-01-14T00:01:23.768Z,712.1
2016-01-14T00:01:39.362Z,712.16
2016-01-14T00:01:55.034Z,712.16
2016-01-14T00:02:10.537Z,712.12
2016-01-14T00:02:26.427Z,712.13
2016-01-14T00:02:42.115Z,712.07
2016-01-14T00:02:58.255Z,712.1
2016-01-14T00:03:14.007Z,712.09
2016-01-14T00:03:30.132Z,712.12
2016-01-14T00:03:45.929Z,712.07
2016-01-14T00:04:01.900Z,712.1
2016-01-14T00:04:17.634Z,712.06
2016-01-14T00:04:33.150Z,712.08
2016-01-14T00:04:49.103Z,712.01
2016-01-14T00:05:04.778Z,712
2016-01-14T00:05:19.716Z,711.99
2016-01-14T00:05:35.544Z,712.01
2016-01-14T00:05:51.184Z,712.02
2016-01-14T00:06:06.875Z,712.01
2016-01-14T00:06:22.734Z,712.03
2016-01-14T00:06:38.844Z,711.95
2016-01-14T00:06:55.000Z,712.01
2016-01-14T00:07:11.175Z,712.02
2016-01-14T00:07:27.065Z,712.06
2016-01-14T00:07:42.878Z,712.09
2016-01-14T00:07:58.628Z,712.11
2016-01-14T00:08:14.708Z,712.07
2016-01-14T00:08:30.802Z,712.07
2016-01-14T00:08:46.786Z,712.07
2016-01-14T00:09:02.662Z,712.1
2016-01-14T00:09:18.821Z,712.06
2016-01-14T00:09:34.509Z,712.06
2016-01-14T00:09:50.368Z,712.05
2016-01-14T00:10:06.340Z,711.98
2016-01-14T00:10:21.496Z,711.98
2016-01-14T00:10:40.184Z,712.02
2016-01-14T00:10:56.371Z,711.99
2016-01-14T00:11:12.921Z,711.98
2016-01-14T00:11:28.499Z,711.99
2016-01-14T00:11:44.187Z,712
2016-01-14T00:12:00.234Z,712.05
2016-01-14T00:12:15.470Z,711.98
2016-01-14T00:12:31.454Z,712.04
2016-01-14T00:12:47.189Z,712.03
2016-01-14T00:13:02.704Z,712.06
2016-01-14T00:13:18.301Z,712.07
2016-01-14T00:13:33.785Z,712.04
2016-01-14T00:13:49.614Z,712
2016-01-14T00:14:05.601Z,712
2016-01-14T00:14:20.960Z,712.07
2016-01-14T00:14:36.882Z,712.03
2016-01-14T00:14:52.585Z,712.05
2016-01-14T00:15:08.681Z,711.99
2016-01-14T00:15:24.697Z,712.1
2016-01-14T00:15:40.619Z,711.94
2016-01-14T00:15:56.603Z,712.06
2016-01-14T00:16:12.778Z,711.99
2016-01-14T00:16:28.372Z,712.01
2016-01-14T00:16:44.434Z,712.03
2016-01-14T00:17:00.528Z,712
2016-01-14T00:17:16.264Z,711.94
2016-01-14T00:17:31.999Z,711.94
2016-01-14T00:17:47.780Z,711.95
2016-01-14T00:18:03.686Z,711.96
2016-01-14T00:18:19.627Z,711.98
2016-01-14T00:18:35.330Z,712
2016-01-14T00:18:50.939Z,711.95
2016-01-14T00:19:06.939Z,711.95
2016-01-14T00:19:23.192Z,712.02
2016-01-14T00:19:41.708Z,711.91
2016-01-14T00:19:57.364Z,711.96
2016-01-14T00:20:13.242Z,711.96
2016-01-14T00:20:29.008Z,711.96
2016-01-14T00:20:44.664Z,711.96
2016-01-14T00:21:00.539Z,711.95
2016-01-14T00:21:16.292Z,711.98
2016-01-14T00:21:32.182Z,712.01
2016-01-14T00:21:48.151Z,711.99
2016-01-14T00:22:03.979Z,712.04
2016-01-14T00:22:19.732Z,711.98
2016-01-14T00:22:35.529Z,712.04
2016-01-14T00:22:51.279Z,711.97
2016-01-14T00:23:07.185Z,712
2016-01-14T00:23:22.844Z,712.01
2016-01-14T00:23:38.219Z,711.98
2016-01-14T00:23:53.906Z,711.98
2016-01-14T00:24:09.203Z,711.95
2016-01-14T00:24:25.315Z,711.92
2016-01-14T00:24:41.487Z,711.94
2016-01-14T00:24:57.347Z,711.93
2016-01-14T00:25:12.756Z,711.98
2016-01-14T00:25:28.928Z,711.93
2016-01-14T00:25:44.678Z,711.88
2016-01-14T00:26:00.756Z,711.94
2016-01-14T00:26:16.367Z,711.88
2016-01-14T00:26:32.055Z,711.87
2016-01-14T00:26:47.930Z,711.94
2016-01-14T00:27:04.008Z,711.93
2016-01-14T00:27:19.417Z,712
2016-01-14T00:27:35.120Z,711.97
2016-01-14T00:27:51.058Z,711.91
2016-01-14T00:28:06.808Z,711.97
2016-01-14T00:28:22.873Z,711.96
2016-01-14T00:28:38.686Z,711.99
2016-01-14T00:28:54.092Z,711.98
2016-01-14T00:29:10.155Z,711.93
2016-01-14T00:29:26.266Z,711.86
2016-01-14T00:29:42.032Z,711.87
2016-01-14T00:29:58.344Z,711.91
2016-01-14T00:30:14.691Z,711.93
2016-01-14T00:30:30.738Z,711.97
2016-01-14T00:30:46.300Z,711.9
2016-01-14T00:31:02.253Z,711.98
2016-01-14T00:31:17.991Z,711.96
2016-01-14T00:31:34.194Z,711.96
2016-01-14T00:31:50.288Z,711.98
2016-01-14T00:32:06.038Z,711.93
2016-01-14T00:32:21.744Z,711.91
2016-01-14T00:33:07.025Z,711.89
2016-01-14T00:33:22.933Z,711.97
2016-01-14T00:33:38.589Z,711.91
2016-01-14T00:33:53.683Z,711.98
2016-01-14T00:34:09.464Z,711.93
2016-01-14T00:34:25.560Z,711.97
2016-01-14T00:34:41.545Z,711.99
2016-01-14T00:34:57.576Z,711.91
2016-01-14T00:35:13.373Z,711.9
2016-01-14T00:35:29.283Z,711.99
2016-01-14T00:35:45.330Z,712
2016-01-14T00:36:01.220Z,711.97
2016-01-14T00:36:31.067Z,711.98
2016-01-14T00:36:45.880Z,712.02
2016-01-14T00:37:01.223Z,712
2016-01-14T00:37:17.319Z,712.01
2016-01-14T00:37:32.866Z,711.97
2016-01-14T00:37:49.007Z,712.04
2016-01-14T00:38:04.569Z,712.01
2016-01-14T00:38:20.181Z,712.01
2016-01-14T00:38:35.993Z,712.01
2016-01-14T00:38:51.446Z,712.01
2016-01-14T00:39:07.337Z,712.01
2016-01-14T00:39:23.543Z,712
2016-01-14T00:39:39.262Z,711.99
2016-01-14T00:39:55.105Z,711.98
2016-01-14T00:40:10.902Z,712.01
2016-01-14T00:40:26.827Z,711.99
2016-01-14T00:40:42.733Z,711.94
2016-01-14T00:40:58.593Z,711.98
2016-01-14T00:41:14.624Z,711.93
2016-01-14T00:41:30.690Z,711.96
2016-01-14T00:41:46.502Z,711.91
2016-01-14T00:42:02.033Z,711.9
2016-01-14T00:42:17.973Z,711.9
2016-01-14T00:42:34.223Z,711.92
2016-01-14T00:42:50.160Z,711.92
2016-01-14T00:43:05.551Z,711.92
2016-01-14T00:43:21.101Z,711.89
2016-01-14T00:43:36.366Z,711.93
2016-01-14T00:43:52.226Z,711.94
2016-01-14T00:44:08.195Z,711.97
2016-01-14T00:44:24.026Z,711.98
2016-01-14T00:44:40.104Z,711.96
2016-01-14T00:44:56.041Z,711.94
2016-01-14T00:45:11.791Z,711.98
2016-01-14T00:45:27.716Z,711.94
2016-01-14T00:45:43.497Z,711.93
2016-01-14T00:45:59.247Z,711.96
2016-01-14T00:46:14.919Z,711.98
2016-01-14T00:46:30.594Z,711.96
2016-01-14T00:46:46.250Z,711.95
2016-01-14T00:47:01.969Z,711.96
2016-01-14T00:47:17.829Z,711.98
2016-01-14T00:47:33.643Z,711.98
2016-01-14T00:47:49.893Z,711.99
2016-01-14T00:48:05.674Z,711.93
2016-01-14T00:48:21.787Z,711.98
2016-01-14T00:48:37.505Z,712.01
2016-01-14T00:48:52.584Z,711.95
2016-01-14T00:49:08.349Z,711.96
2016-01-14T00:49:24.462Z,711.96
2016-01-14T00:49:40.758Z,711.93
2016-01-14T00:49:57.024Z,711.93
2016-01-14T00:50:13.040Z,711.93
2016-01-14T00:50:29.057Z,711.89
2016-01-14T00:50:44.401Z,711.97
2016-01-14T00:51:00.276Z,711.93
2016-01-14T00:51:16.229Z,711.99
2016-01-14T00:51:31.998Z,711.99
2016-01-14T00:51:48.076Z,711.88
2016-01-14T00:52:03.763Z,711.94
2016-01-14T00:52:19.250Z,711.81
2016-01-14T00:52:34.875Z,711.94
2016-01-14T00:52:50.594Z,711.89
2016-01-14T00:53:06.406Z,711.89
2016-01-14T00:53:22.160Z,711.89
2016-01-14T00:53:37.894Z,711.91
2016-01-14T00:53:53.582Z,711.91
2016-01-14T00:54:09.457Z,711.88
2016-01-14T00:54:25.334Z,711.94
2016-01-14T00:54:41.334Z,711.91
2016-01-14T00:54:57.287Z,711.9
2016-01-14T00:55:12.881Z,711.92
2016-01-14T00:55:28.509Z,711.96
2016-01-14T00:55:44.431Z,711.94
2016-01-14T00:56:00.446Z,711.93
2016-01-14T00:56:16.462Z,711.91
2016-01-14T00:56:32.620Z,711.94
2016-01-14T00:56:48.323Z,711.89
2016-01-14T00:57:04.183Z,711.84
2016-01-14T00:57:20.011Z,711.79
2016-01-14T00:57:36.061Z,711.84
2016-01-14T00:57:51.920Z,711.9
2016-01-14T00:58:07.983Z,711.87
2016-01-14T00:58:23.563Z,711.82
2016-01-14T00:58:39.172Z,711.91
2016-01-14T00:58:54.938Z,711.83
2016-01-14T00:59:10.594Z,711.86
2016-01-14T00:59:26.129Z,711.83
2016-01-14T00:59:42.067Z,711.89
2016-01-14T00:59:57.754Z,711.85
2016-01-14T01:00:14.082Z,711.88
2016-01-14T01:00:29.709Z,711.9
2016-01-14T01:00:45.772Z,711.97
2016-01-14T01:01:01.772Z,711.87
2016-01-14T01:01:17.881Z,711.89
2016-01-14T01:01:33.650Z,711.88
2016-01-14T01:01:49.509Z,711.9
2016-01-14T01:02:05.603Z,711.91
2016-01-14T01:02:21.259Z,711.91
2016-01-14T01:02:37.353Z,711.93
2016-01-14T01:02:52.931Z,711.88
2016-01-14T01:03:08.572Z,711.91
2016-01-14T01:03:24.496Z,711.9
2016-01-14T01:03:40.496Z,711.87
2016-01-14T01:03:56.402Z,711.87
2016-01-14T01:04:12.136Z,711.88
2016-01-14T01:04:28.045Z,711.82
2016-01-14T01:04:43.999Z,711.82
2016-01-14T01:04:59.717Z,711.81
2016-01-14T01:05:18.389Z,711.82
2016-01-14T01:05:34.127Z,711.74
2016-01-14T01:05:49.908Z,711.78
2016-01-14T01:06:05.752Z,711.79
2016-01-14T01:06:21.752Z,711.78
2016-01-14T01:06:37.754Z,711.74
2016-01-14T01:06:53.879Z,711.72
2016-01-14T01:07:09.769Z,711.79
2016-01-14T01:07:25.616Z,711.68
2016-01-14T01:07:41.335Z,711.72
2016-01-14T01:07:57.350Z,711.73
2016-01-14T01:08:12.913Z,711.68
2016-01-14T01:08:28.681Z,711.7
2016-01-14T01:08:44.525Z,711.68
2016-01-14T01:09:00.322Z,711.76
2016-01-14T01:09:16.025Z,711.75
2016-01-14T01:09:31.699Z,711.74
2016-01-14T01:09:47.387Z,711.71
2016-01-14T01:10:03.293Z,711.73
2016-01-14T01:10:19.074Z,711.76
2016-01-14T01:10:34.969Z,711.81
2016-01-14T01:10:50.781Z,711.79
2016-01-14T01:11:06.547Z,711.71
2016-01-14T01:11:22.391Z,711.74
2016-01-14T01:11:38.455Z,711.74
2016-01-14T01:11:54.611Z,711.78
2016-01-14T01:12:10.064Z,711.8
2016-01-14T01:12:25.533Z,711.78
2016-01-14T01:12:41.333Z,711.81
2016-01-14T01:12:57.380Z,711.8
2016-01-14T01:13:13.505Z,711.83
2016-01-14T01:13:29.132Z,711.82
2016-01-14T01:13:44.835Z,711.77
2016-01-14T01:14:00.835Z,711.82
2016-01-14T01:14:15.788Z,711.81
2016-01-14T01:14:31.558Z,711.83
2016-01-14T01:14:47.448Z,711.68
2016-01-14T01:15:03.230Z,711.79
2016-01-14T01:15:18.511Z,711.75
2016-01-14T01:15:34.215Z,711.8
2016-01-14T01:15:49.762Z,711.72
2016-01-14T01:16:05.543Z,711.77
2016-01-14T01:16:21.293Z,711.73
2016-01-14T01:16:37.110Z,711.84
2016-01-14T01:16:52.938Z,711.81
2016-01-14T01:17:08.813Z,711.71
2016-01-14T01:17:24.985Z,711.74
2016-01-14T01:17:40.627Z,711.83
2016-01-14T01:17:56.409Z,711.71
2016-01-14T01:18:12.534Z,711.74
2016-01-14T01:18:28.365Z,711.71
2016-01-14T01:18:43.333Z,711.77
2016-01-14T01:18:58.802Z,711.78
2016-01-14T01:19:14.974Z,711.83
2016-01-14T01:19:30.774Z,711.88
2016-01-14T01:19:46.586Z,711.79
2016-01-14T01:20:02.352Z,711.84
2016-01-14T01:20:18.227Z,711.78
2016-01-14T01:20:33.870Z,711.82
2016-01-14T01:20:49.620Z,711.85
2016-01-14T01:21:05.026Z,711.75
2016-01-14T01:21:21.073Z,711.81
2016-01-14T01:22:19.310Z,711.82
2016-01-14T01:22:35.079Z,711.76
2016-01-14T01:22:50.563Z,711.74
2016-01-14T01:23:06.313Z,711.78
2016-01-14T01:23:21.938Z,711.7
2016-01-14T01:23:37.941Z,711.75
2016-01-14T01:23:53.988Z,711.75
2016-01-14T01:24:09.847Z,711.82
2016-01-14T01:24:25.410Z,711.81
2016-01-14T01:24:41.162Z,711.71
2016-01-14T01:24:57.084Z,711.75
2016-01-14T01:25:13.193Z,711.79
2016-01-14T01:25:29.146Z,711.85
2016-01-14T01:25:45.337Z,711.85
2016-01-14T01:26:14.774Z,711.79
2016-01-14T01:26:30.587Z,711.79
2016-01-14T01:26:46.339Z,711.78
2016-01-14T01:27:02.214Z,711.8
2016-01-14T01:27:18.354Z,711.77
2016-01-14T01:27:34.107Z,711.74
2016-01-14T01:27:50.076Z,711.78
2016-01-14T01:28:05.920Z,711.85
2016-01-14T01:28:21.842Z,711.84
2016-01-14T01:28:37.642Z,711.74
2016-01-14T01:28:53.579Z,711.87
2016-01-14T01:29:09.532Z,711.82
2016-01-14T01:29:24.439Z,711.84
2016-01-14T01:29:39.816Z,711.88
2016-01-14T01:29:55.987Z,711.89
2016-01-14T01:30:11.862Z,711.82
2016-01-14T01:30:28.175Z,711.88
2016-01-14T01:30:43.990Z,711.8
2016-01-14T01:31:00.100Z,711.75
2016-01-14T01:31:15.397Z,711.75
2016-01-14T01:31:31.397Z,711.76
2016-01-14T01:31:47.322Z,711.8
2016-01-14T01:32:03.368Z,711.8
2016-01-14T01:32:19.431Z,711.76
2016-01-14T01:32:35.168Z,711.83
2016-01-14T01:32:51.278Z,711.81
2016-01-14T01:33:07.418Z,711.78
2016-01-14T01:33:23.450Z,711.79
2016-01-14T01:33:39.374Z,711.81
2016-01-14T01:33:55.406Z,711.75
2016-01-14T01:34:11.093Z,711.77
2016-01-14T01:34:26.562Z,711.81
2016-01-14T01:34:42.173Z,711.78
2016-01-14T01:34:57.892Z,711.76
2016-01-14T01:35:13.392Z,711.75
2016-01-14T01:35:29.517Z,711.76
2016-01-14T01:35:45.458Z,711.76
2016-01-14T01:36:00.895Z,711.75
2016-01-14T01:36:16.489Z,711.77
2016-01-14T01:36:31.833Z,711.69
2016-01-14T01:36:47.742Z,711.73
2016-01-14T01:37:03.773Z,711.77
2016-01-14T01:37:19.679Z,711.75
2016-01-14T01:37:35.447Z,711.79
2016-01-14T01:37:51.228Z,711.78
2016-01-14T01:38:07.447Z,711.81
2016-01-14T01:38:23.291Z,711.74
2016-01-14T01:38:38.700Z,711.77
2016-01-14T01:38:54.294Z,711.78
2016-01-14T01:39:10.044Z,711.78
2016-01-14T01:39:25.903Z,711.73
2016-01-14T01:39:41.906Z,711.8
2016-01-14T01:39:57.969Z,711.73
2016-01-14T01:40:13.844Z,711.77
2016-01-14T01:40:29.219Z,711.72
2016-01-14T01:40:44.736Z,711.79
2016-01-14T01:41:00.408Z,711.75
2016-01-14T01:41:16.267Z,711.71
2016-01-14T01:41:31.955Z,711.76
2016-01-14T01:41:47.786Z,711.73
2016-01-14T01:42:03.567Z,711.71
2016-01-14T01:42:19.677Z,711.69
2016-01-14T01:42:35.989Z,711.65
2016-01-14T01:42:51.883Z,711.71
2016-01-14T01:43:07.836Z,711.61
2016-01-14T01:43:23.680Z,711.71
2016-01-14T01:43:39.276Z,711.71
2016-01-14T01:43:54.776Z,711.75
2016-01-14T01:44:10.480Z,711.72
2016-01-14T01:44:25.870Z,711.69
2016-01-14T01:44:41.763Z,711.71
2016-01-14T01:44:57.169Z,711.71
2016-01-14T01:45:12.919Z,711.73
2016-01-14T01:45:28.513Z,711.77
2016-01-14T01:45:44.391Z,711.79
2016-01-14T01:46:00.250Z,711.74
2016-01-14T01:46:15.922Z,711.75
2016-01-14T01:46:31.375Z,711.74
2016-01-14T01:46:47.066Z,711.69
2016-01-14T01:47:03.206Z,711.74
2016-01-14T01:47:19.347Z,711.76
2016-01-14T01:47:35.300Z,711.69
2016-01-14T01:47:51.225Z,711.71
2016-01-14T01:48:06.866Z,711.74
2016-01-14T01:48:22.397Z,711.65
2016-01-14T01:48:38.475Z,711.66
2016-01-14T01:48:54.430Z,711.65
2016-01-14T01:49:10.477Z,711.72
2016-01-14T01:49:26.258Z,711.66
2016-01-14T01:49:42.386Z,711.73
2016-01-14T01:49:58.230Z,711.74
2016-01-14T01:50:13.449Z,711.7
2016-01-14T01:50:29.199Z,711.71
2016-01-14T01:50:44.374Z,711.73
2016-01-14T01:51:00.342Z,711.64
2016-01-14T01:51:15.842Z,711.7
2016-01-14T01:51:31.983Z,711.59
2016-01-14T01:51:48.110Z,711.74
2016-01-14T01:52:04.157Z,711.7
2016-01-14T01:52:20.126Z,711.7
2016-01-14T01:52:35.860Z,711.61
2016-01-14T01:52:51.597Z,711.69
2016-01-14T01:53:07.379Z,711.64
2016-01-14T01:53:23.129Z,711.71
2016-01-14T01:53:39.316Z,711.68
2016-01-14T01:53:54.990Z,711.7
2016-01-14T01:54:10.802Z,711.72
2016-01-14T01:54:26.271Z,711.75
2016-01-14T01:54:45.399Z,711.77
2016-01-14T01:55:00.993Z,711.73
2016-01-14T01:55:16.665Z,711.74
2016-01-14T01:55:32.399Z,711.67
2016-01-14T01:55:47.808Z,711.69
2016-01-14T01:56:03.902Z,711.65
2016-01-14T01:56:19.887Z,711.62
2016-01-14T01:56:35.855Z,711.74
2016-01-14T01:56:51.421Z,711.72
2016-01-14T01:57:07.436Z,711.64
2016-01-14T01:57:23.015Z,711.64
2016-01-14T01:57:38.936Z,711.64
2016-01-14T01:57:54.580Z,711.64
2016-01-14T01:58:10.314Z,711.68
2016-01-14T01:58:26.049Z,711.65
2016-01-14T01:58:41.705Z,711.66
2016-01-14T01:58:57.098Z,711.65
2016-01-14T01:59:12.926Z,711.68
2016-01-14T01:59:28.723Z,711.62
2016-01-14T01:59:44.566Z,711.63
2016-01-14T02:00:00.632Z,711.69
2016-01-14T02:00:16.835Z,711.64
2016-01-14T02:00:32.538Z,711.68
2016-01-14T02:00:48.212Z,711.63
2016-01-14T02:01:03.993Z,711.67
2016-01-14T02:01:20.040Z,711.7
2016-01-14T02:01:35.868Z,711.73
2016-01-14T02:01:52.184Z,711.69
2016-01-14T02:02:07.762Z,711.67
2016-01-14T02:02:23.818Z,711.69
2016-01-14T02:02:39.521Z,711.72
2016-01-14T02:02:55.336Z,711.67
2016-01-14T02:03:11.008Z,711.76
2016-01-14T02:03:26.899Z,711.68
2016-01-14T02:03:42.696Z,711.69
2016-01-14T02:03:58.042Z,711.58
2016-01-14T02:04:14.167Z,711.61
2016-01-14T02:04:30.027Z,711.67
2016-01-14T02:04:45.761Z,711.69
2016-01-14T02:05:01.466Z,711.63
2016-01-14T02:05:17.123Z,711.63
2016-01-14T02:05:33.294Z,711.63
2016-01-14T02:05:49.373Z,711.65
2016-01-14T02:06:05.376Z,711.61
2016-01-14T02:06:21.079Z,711.6
2016-01-14T02:06:37.172Z,711.68
2016-01-14T02:06:52.972Z,711.58
2016-01-14T02:07:08.738Z,711.5
2016-01-14T02:07:24.504Z,711.64
2016-01-14T02:07:40.332Z,711.65
2016-01-14T02:07:56.427Z,711.66
2016-01-14T02:08:12.474Z,711.66
2016-01-14T02:08:28.740Z,711.66
2016-01-14T02:08:44.506Z,711.65
2016-01-14T02:09:00.712Z,711.69
2016-01-14T02:09:16.571Z,711.61
2016-01-14T02:09:32.227Z,711.63
2016-01-14T02:09:47.509Z,711.66
2016-01-14T02:10:02.512Z,711.66
2016-01-14T02:10:17.949Z,711.68
2016-01-14T02:10:33.527Z,711.69
2016-01-14T02:10:48.840Z,711.69
2016-01-14T02:11:04.826Z,711.7
2016-01-14T02:11:20.717Z,711.64
2016-01-14T02:11:36.076Z,711.7
2016-01-14T02:11:51.998Z,711.68
2016-01-14T02:12:07.829Z,711.67
2016-01-14T02:12:23.517Z,711.59
2016-01-14T02:12:39.485Z,711.64
2016-01-14T02:12:55.754Z,711.66
2016-01-14T02:13:11.629Z,711.64
2016-01-14T02:13:27.363Z,711.68
2016-01-14T02:13:43.676Z,711.63
2016-01-14T02:13:59.804Z,711.65
2016-01-14T02:14:15.898Z,711.64
2016-01-14T02:14:31.585Z,711.59
2016-01-14T02:14:46.804Z,711.63
2016-01-14T02:15:02.478Z,711.65
2016-01-14T02:15:18.228Z,711.67
2016-01-14T02:15:33.946Z,711.64
2016-01-14T02:15:49.790Z,711.57
2016-01-14T02:16:05.981Z,711.64
2016-01-14T02:16:21.778Z,711.64
2016-01-14T02:16:37.887Z,711.65
2016-01-14T02:16:53.824Z,711.69
2016-01-14T02:17:09.952Z,711.58
2016-01-14T02:17:25.624Z,711.56
2016-01-14T02:17:41.859Z,711.62
2016-01-14T02:17:57.862Z,711.65
2016-01-14T02:18:13.815Z,711.55
2016-01-14T02:18:29.612Z,711.58
2016-01-14T02:18:45.612Z,711.59
2016-01-14T02:19:01.490Z,711.54
2016-01-14T02:19:16.802Z,711.58
2016-01-14T02:19:32.630Z,711.62
2016-01-14T02:19:48.646Z,711.62
2016-01-14T02:20:04.679Z,711.58
2016-01-14T02:20:20.820Z,711.62
2016-01-14T02:20:36.132Z,711.61
2016-01-14T02:20:51.867Z,711.65
2016-01-14T02:21:07.932Z,711.57
2016-01-14T02:21:23.885Z,711.59
2016-01-14T02:21:39.620Z,711.59
2016-01-14T02:21:55.385Z,711.44
2016-01-14T02:22:11.138Z,711.49
2016-01-14T02:22:26.966Z,711.61
2016-01-14T02:22:43.154Z,711.5
2016-01-14T02:22:59.265Z,711.54
2016-01-14T02:23:15.000Z,711.51
2016-01-14T02:23:30.890Z,711.49
2016-01-14T02:23:46.890Z,711.47
2016-01-14T02:24:03.315Z,711.54
2016-01-14T02:24:18.971Z,711.53
2016-01-14T02:24:35.143Z,711.53
2016-01-14T02:24:50.800Z,711.55
2016-01-14T02:25:06.317Z,711.57
2016-01-14T02:25:21.848Z,711.55
2016-01-14T02:25:37.552Z,711.51
2016-01-14T02:25:53.177Z,711.56
2016-01-14T02:26:09.117Z,711.55
2016-01-14T02:26:24.680Z,711.58
2016-01-14T02:26:40.539Z,711.53
2016-01-14T02:26:56.101Z,711.46
2016-01-14T02:27:11.854Z,711.52
2016-01-14T02:27:27.479Z,711.55
2016-01-14T02:27:43.183Z,711.49
2016-01-14T02:27:58.870Z,711.5
2016-01-14T02:28:14.607Z,711.43
2016-01-14T02:28:30.357Z,711.52
2016-01-14T02:28:46.529Z,711.46
2016-01-14T02:29:02.232Z,711.46
2016-01-14T02:29:18.281Z,711.42
2016-01-14T02:29:34.156Z,711.48
2016-01-14T02:29:50.141Z,711.51
2016-01-14T02:30:06.081Z,711.21
2016-01-14T02:30:22.394Z,711.43
2016-01-14T02:30:38.316Z,711.39
2016-01-14T02:30:53.909Z,711.47
2016-01-14T02:31:09.928Z,711.49
2016-01-14T02:31:25.772Z,711.48
2016-01-14T02:31:41.631Z,711.55
2016-01-14T02:31:57.756Z,711.5
2016-01-14T02:32:13.556Z,711.46
2016-01-14T02:32:29.259Z,711.51
2016-01-14T02:32:44.947Z,711.37
2016-01-14T02:33:00.759Z,711.5
2016-01-14T02:33:16.418Z,711.56
2016-01-14T02:33:31.825Z,711.48
2016-01-14T02:33:48.043Z,711.52
2016-01-14T02:34:03.434Z,711.53
2016-01-14T02:34:19.248Z,711.45
2016-01-14T02:34:34.873Z,711.54
2016-01-14T02:34:50.170Z,711.54
2016-01-14T02:35:06.014Z,711.5
2016-01-14T02:35:22.345Z,711.42
2016-01-14T02:35:38.220Z,711.48
2016-01-14T02:35:54.392Z,711.46
2016-01-14T02:36:09.767Z,711.49
2016-01-14T02:36:25.739Z,711.44
2016-01-14T02:36:42.083Z,711.47
2016-01-14T02:36:58.317Z,711.44
2016-01-14T02:37:14.070Z,711.44
2016-01-14T02:37:29.820Z,711.41
2016-01-14T02:37:45.523Z,711.45
2016-01-14T02:38:01.086Z,711.24
2016-01-14T02:38:16.697Z,711.43
2016-01-14T02:38:32.181Z,711.48
2016-01-14T02:38:47.931Z,711.44
2016-01-14T02:39:03.947Z,711.34
2016-01-14T02:39:20.059Z,711.42
2016-01-14T02:39:35.747Z,711.43
2016-01-14T02:39:51.606Z,711.4
2016-01-14T02:40:07.309Z,711.44
2016-01-14T02:40:22.811Z,711.43
2016-01-14T02:40:38.733Z,711.42
2016-01-14T02:40:54.624Z,711.44
2016-01-14T02:41:10.936Z,711.42
2016-01-14T02:41:26.611Z,711.46
2016-01-14T02:41:42.486Z,711.44
2016-01-14T02:41:58.596Z,711.4
2016-01-14T02:42:14.489Z,711.5
2016-01-14T02:42:30.520Z,711.42
2016-01-14T02:42:46.349Z,711.51
2016-01-14T02:43:02.349Z,711.53
2016-01-14T02:43:18.335Z,711.41
2016-01-14T02:43:35.007Z,711.48
2016-01-14T02:43:50.835Z,711.49
2016-01-14T02:44:06.241Z,711.47
2016-01-14T02:44:22.213Z,711.52
2016-01-14T02:44:38.041Z,711.45
2016-01-14T02:44:56.854Z,711.42
2016-01-14T02:45:12.729Z,711.45
2016-01-14T02:45:28.919Z,711.42
2016-01-14T02:45:45.138Z,711.42
2016-01-14T02:46:01.122Z,711.38
2016-01-14T02:46:16.719Z,711.38
2016-01-14T02:46:32.031Z,711.37
2016-01-14T02:46:48.016Z,711.43
2016-01-14T02:47:04.172Z,711.36
2016-01-14T02:47:19.534Z,711.47
2016-01-14T02:47:34.675Z,711.25
2016-01-14T02:47:50.738Z,711.4
2016-01-14T02:48:06.659Z,711.39
2016-01-14T02:48:25.693Z,711.46
2016-01-14T02:48:41.802Z,711.38
2016-01-14T02:48:57.474Z,711.47
2016-01-14T02:49:13.396Z,711.45
2016-01-14T02:49:29.071Z,711.45
2016-01-14T02:49:44.961Z,711.45
2016-01-14T02:50:01.149Z,711.5
2016-01-14T02:50:17.167Z,711.5
2016-01-14T02:50:32.699Z,711.48
2016-01-14T02:50:48.464Z,711.47
2016-01-14T02:51:04.277Z,711.46
2016-01-14T02:51:18.967Z,711.4
2016-01-14T02:51:34.733Z,711.47
2016-01-14T02:51:50.405Z,711.51
2016-01-14T02:52:06.108Z,711.45
2016-01-14T02:52:22.219Z,711.46
2016-01-14T02:52:38.079Z,711.46
2016-01-14T02:52:54.016Z,711.52
2016-01-14T02:53:09.829Z,711.43
2016-01-14T02:53:25.410Z,711.34
2016-01-14T02:53:40.894Z,711.47
2016-01-14T02:53:56.441Z,711.39
2016-01-14T02:54:12.332Z,711.5
2016-01-14T02:54:27.787Z,711.46
2016-01-14T02:54:43.381Z,711.54
2016-01-14T02:54:59.427Z,711.49
2016-01-14T02:55:15.412Z,711.51
2016-01-14T02:55:31.430Z,711.44
2016-01-14T02:55:47.259Z,711.44
2016-01-14T02:56:02.993Z,711.37
2016-01-14T02:56:18.793Z,711.42
2016-01-14T02:56:34.902Z,711.31
2016-01-14T02:56:50.793Z,711.41
2016-01-14T02:57:06.808Z,711.34
2016-01-14T02:57:22.810Z,711.41
2016-01-14T02:57:38.748Z,711.4
2016-01-14T02:57:54.717Z,711.34
2016-01-14T02:58:10.592Z,711.35
2016-01-14T02:58:26.235Z,711.43
2016-01-14T02:58:42.032Z,711.39
2016-01-14T02:58:57.704Z,711.38
2016-01-14T02:59:13.829Z,711.41
2016-01-14T02:59:29.707Z,711.42
2016-01-14T02:59:45.645Z,711.4
2016-01-14T03:00:01.395Z,711.26
2016-01-14T03:00:18.023Z,711.32
2016-01-14T03:00:33.866Z,711.34
2016-01-14T03:00:49.351Z,711.39
2016-01-14T03:01:05.257Z,711.41
2016-01-14T03:01:21.041Z,711.33
2016-01-14T03:01:36.776Z,711.42
2016-01-14T03:01:52.682Z,711.42
2016-01-14T03:02:08.447Z,711.38
2016-01-14T03:02:24.278Z,711.38
2016-01-14T03:02:39.903Z,711.39
2016-01-14T03:02:55.637Z,711.34
2016-01-14T03:03:11.324Z,711.35
2016-01-14T03:03:27.233Z,711.37
2016-01-14T03:03:43.061Z,711.37
2016-01-14T03:03:58.717Z,711.37
2016-01-14T03:04:14.936Z,711.27
2016-01-14T03:04:30.955Z,711.21
2016-01-14T03:04:46.471Z,711.29
2016-01-14T03:05:02.674Z,711.32
2016-01-14T03:05:17.627Z,711.24
2016-01-14T03:05:33.520Z,711.2
2016-01-14T03:05:49.473Z,711.16
2016-01-14T03:06:05.582Z,711.28
2016-01-14T03:06:21.273Z,711.21
2016-01-14T03:06:37.210Z,711.3
2016-01-14T03:06:52.929Z,711.31
2016-01-14T03:07:08.539Z,711.29
2016-01-14T03:07:24.292Z,711.22
2016-01-14T03:07:40.401Z,711.2
2016-01-14T03:07:56.542Z,711.25
2016-01-14T03:08:12.338Z,711.25
2016-01-14T03:08:28.137Z,711.23
2016-01-14T03:08:44.231Z,711.2
2016-01-14T03:09:00.419Z,711.4
2016-01-14T03:09:16.200Z,711.1
2016-01-14T03:09:32.187Z,711.17
2016-01-14T03:09:48.047Z,711.23
2016-01-14T03:10:03.875Z,711.21
2016-01-14T03:10:19.562Z,711.18
2016-01-14T03:10:35.550Z,711.21
2016-01-14T03:10:51.518Z,711.25
2016-01-14T03:11:07.268Z,711.24
2016-01-14T03:11:23.131Z,711.16
2016-01-14T03:11:38.568Z,711.22
2016-01-14T03:11:54.537Z,711.19
2016-01-14T03:12:10.881Z,711.17
2016-01-14T03:12:26.851Z,711.19
2016-01-14T03:12:42.164Z,711.25
2016-01-14T03:12:57.945Z,711.23
2016-01-14T03:13:14.023Z,711.27
2016-01-14T03:13:29.651Z,711.29
2016-01-14T03:13:45.714Z,711.21
2016-01-14T03:14:01.870Z,711.25
2016-01-14T03:14:21.073Z,711.08
2016-01-14T03:14:36.498Z,711.23
2016-01-14T03:14:52.357Z,711.1
2016-01-14T03:15:07.764Z,711.03
2016-01-14T03:15:23.842Z,711.11
2016-01-14T03:15:39.578Z,711.09
2016-01-14T03:15:55.281Z,711.06
2016-01-14T03:16:11.375Z,711.07
2016-01-14T03:16:27.206Z,711.26
2016-01-14T03:16:42.753Z,711.19
2016-01-14T03:16:58.503Z,711.18
2016-01-14T03:17:14.159Z,711.18
2016-01-14T03:17:29.740Z,711.19
2016-01-14T03:17:45.600Z,711.16
2016-01-14T03:18:00.803Z,711.09
2016-01-14T03:18:16.678Z,711.13
2016-01-14T03:18:31.837Z,711.08
2016-01-14T03:18:47.525Z,711.15
2016-01-14T03:19:03.415Z,711.15
2016-01-14T03:19:19.118Z,711.13
2016-01-14T03:19:34.949Z,711.14
2016-01-14T03:19:51.011Z,711.1
2016-01-14T03:20:06.636Z,711.14